Terminal Aerodrome Forecast
Issued by NWS Upton, NY

Home | Current Version | Previous Version | Text Only | Print | Product List | Glossary On
Versions: 1 2 3 4 5 6 7 8 9 10 11 12 13 14 15 16 17 18 19 20 21 22 23 24 25 26 27 28
000
FTUS41 KOKX 280200 AAA
TAFISP
TAF AMD
KISP 280236Z 2803/2824 33016G26KT P6SM SCT025 BKN050
      TEMPO 2803/2805 6SM -SHSN
     FM280800 33013KT P6SM SCT025 BKN050
     FM281400 33015G25KT P6SM SCT025 BKN050
     FM282200 33010KT P6SM FEW025 SCT250=

USA.gov is the U.S. government's official web portal to all federal, state and local government web resources and services.